sensor_id;sensor_type;location;lat;lon;timestamp;temperature;humidity
6841;DHT22;3458;53.678;14.080;2023-03-23T00:02:11;12.30;99.90
6841;DHT22;3458;53.678;14.080;2023-03-23T00:04:36;12.30;99.90
6841;DHT22;3458;53.678;14.080;2023-03-23T00:07:02;12.30;99.90
6841;DHT22;3458;53.678;14.080;2023-03-23T00:09:28;12.30;99.90
6841;DHT22;3458;53.678;14.080;2023-03-23T00:11:55;12.30;99.90
6841;DHT22;3458;53.678;14.080;2023-03-23T00:14:23;12.30;99.90
6841;DHT22;3458;53.678;14.080;2023-03-23T00:16:49;12.30;99.90
6841;DHT22;3458;53.678;14.080;2023-03-23T00:19:15;12.30;99.90
6841;DHT22;3458;53.678;14.080;2023-03-23T00:21:42;12.30;99.90
6841;DHT22;3458;53.678;14.080;2023-03-23T00:24:15;12.30;99.90
6841;DHT22;3458;53.678;14.080;2023-03-23T00:26:43;12.30;99.90
6841;DHT22;3458;53.678;14.080;2023-03-23T00:29:17;12.30;99.90
6841;DHT22;3458;53.678;14.080;2023-03-23T00:31:45;12.40;99.90
6841;DHT22;3458;53.678;14.080;2023-03-23T00:34:17;12.40;99.90
6841;DHT22;3458;53.678;14.080;2023-03-23T00:36:49;12.30;99.90
6841;DHT22;3458;53.678;14.080;2023-03-23T00:39:17;12.30;99.90
6841;DHT22;3458;53.678;14.080;2023-03-23T00:41:44;12.30;99.90
6841;DHT22;3458;53.678;14.080;2023-03-23T00:44:10;12.30;99.90
6841;DHT22;3458;53.678;14.080;2023-03-23T00:46:42;12.30;99.90
6841;DHT22;3458;53.678;14.080;2023-03-23T00:49:17;12.30;99.90
6841;DHT22;3458;53.678;14.080;2023-03-23T00:51:44;12.30;99.90
6841;DHT22;3458;53.678;14.080;2023-03-23T00:54:10;12.20;99.90
6841;DHT22;3458;53.678;14.080;2023-03-23T00:56:37;12.20;99.90
6841;DHT22;3458;53.678;14.080;2023-03-23T00:59:04;12.20;99.90
6841;DHT22;3458;53.678;14.080;2023-03-23T01:01:29;12.20;99.90
6841;DHT22;3458;53.678;14.080;2023-03-23T01:03:55;12.20;99.90
6841;DHT22;3458;53.678;14.080;2023-03-23T01:06:27;12.20;99.90
6841;DHT22;3458;53.678;14.080;2023-03-23T01:08:52;12.20;99.90
6841;DHT22;3458;53.678;14.080;2023-03-23T01:11:19;12.20;99.90
6841;DHT22;3458;53.678;14.080;2023-03-23T01:13:45;12.20;99.90
6841;DHT22;3458;53.678;14.080;2023-03-23T01:16:11;12.20;99.90
6841;DHT22;3458;53.678;14.080;2023-03-23T01:18:37;12.20;99.90
6841;DHT22;3458;53.678;14.080;2023-03-23T01:21:07;12.20;99.90
6841;DHT22;3458;53.678;14.080;2023-03-23T01:23:34;12.20;99.90
6841;DHT22;3458;53.678;14.080;2023-03-23T01:26:07;12.20;99.90
6841;DHT22;3458;53.678;14.080;2023-03-23T01:28:34;12.20;99.90
6841;DHT22;3458;53.678;14.080;2023-03-23T01:31:03;12.20;99.90
6841;DHT22;3458;53.678;14.080;2023-03-23T01:33:29;12.20;99.90
6841;DHT22;3458;53.678;14.080;2023-03-23T01:35:55;12.10;99.90
6841;DHT22;3458;53.678;14.080;2023-03-23T01:38:20;12.10;99.90
6841;DHT22;3458;53.678;14.080;2023-03-23T01:40:46;12.10;99.90
6841;DHT22;3458;53.678;14.080;2023-03-23T01:43:14;12.10;99.90
6841;DHT22;3458;53.678;14.080;2023-03-23T01:45:40;12.10;99.90
6841;DHT22;3458;53.678;14.080;2023-03-23T01:48:25;12.10;99.90
6841;DHT22;3458;53.678;14.080;2023-03-23T01:53:31;12.10;99.90
6841;DHT22;3458;53.678;14.080;2023-03-23T01:56:00;12.10;99.90
6841;DHT22;3458;53.678;14.080;2023-03-23T01:58:29;12.00;99.90
6841;DHT22;3458;53.678;14.080;2023-03-23T02:00:57;12.00;99.90
6841;DHT22;3458;53.678;14.080;2023-03-23T02:03:27;12.00;99.90
6841;DHT22;3458;53.678;14.080;2023-03-23T02:05:53;12.00;99.90
6841;DHT22;3458;53.678;14.080;2023-03-23T02:08:19;12.00;99.90
6841;DHT22;3458;53.678;14.080;2023-03-23T02:10:45;12.10;99.90
6841;DHT22;3458;53.678;14.080;2023-03-23T02:13:12;12.10;99.90
6841;DHT22;3458;53.678;14.080;2023-03-23T02:18:30;12.00;99.90
6841;DHT22;3458;53.678;14.080;2023-03-23T02:21:03;12.10;99.90
6841;DHT22;3458;53.678;14.080;2023-03-23T02:35:00;12.00;99.90
6841;DHT22;3458;53.678;14.080;2023-03-23T02:37:31;12.00;99.90
6841;DHT22;3458;53.678;14.080;2023-03-23T02:40:02;12.00;99.90
6841;DHT22;3458;53.678;14.080;2023-03-23T02:42:40;12.00;99.90
6841;DHT22;3458;53.678;14.080;2023-03-23T02:45:08;11.90;99.90
6841;DHT22;3458;53.678;14.080;2023-03-23T02:47:37;11.90;99.90
6841;DHT22;3458;53.678;14.080;2023-03-23T02:50:05;11.90;99.90
6841;DHT22;3458;53.678;14.080;2023-03-23T02:52:33;11.90;99.90
6841;DHT22;3458;53.678;14.080;2023-03-23T02:55:00;11.90;99.90
6841;DHT22;3458;53.678;14.080;2023-03-23T02:57:27;11.80;99.90
6841;DHT22;3458;53.678;14.080;2023-03-23T02:59:53;11.80;99.90
6841;DHT22;3458;53.678;14.080;2023-03-23T03:02:28;11.70;99.90
6841;DHT22;3458;53.678;14.080;2023-03-23T03:08:00;11.60;99.90
6841;DHT22;3458;53.678;14.080;2023-03-23T03:10:53;11.60;99.90
6841;DHT22;3458;53.678;14.080;2023-03-23T03:16:16;11.60;99.90
6841;DHT22;3458;53.678;14.080;2023-03-23T03:21:13;11.60;99.90
6841;DHT22;3458;53.678;14.080;2023-03-23T03:23:42;11.60;99.90
6841;DHT22;3458;53.678;14.080;2023-03-23T03:26:10;11.60;99.90
6841;DHT22;3458;53.678;14.080;2023-03-23T03:28:37;11.60;99.90
6841;DHT22;3458;53.678;14.080;2023-03-23T03:31:04;11.60;99.90
6841;DHT22;3458;53.678;14.080;2023-03-23T03:33:32;11.50;99.90
6841;DHT22;3458;53.678;14.080;2023-03-23T03:36:01;11.50;99.90
6841;DHT22;3458;53.678;14.080;2023-03-23T03:38:27;11.40;99.90
6841;DHT22;3458;53.678;14.080;2023-03-23T03:40:55;11.40;99.90
6841;DHT22;3458;53.678;14.080;2023-03-23T03:43:21;11.40;99.90
6841;DHT22;3458;53.678;14.080;2023-03-23T03:45:46;11.40;99.90
6841;DHT22;3458;53.678;14.080;2023-03-23T03:48:12;11.30;99.90
6841;DHT22;3458;53.678;14.080;2023-03-23T03:50:38;11.30;99.90
6841;DHT22;3458;53.678;14.080;2023-03-23T03:53:04;11.30;99.90
6841;DHT22;3458;53.678;14.080;2023-03-23T03:55:31;11.30;99.90
6841;DHT22;3458;53.678;14.080;2023-03-23T03:58:03;11.20;99.90
6841;DHT22;3458;53.678;14.080;2023-03-23T04:00:30;11.20;99.90
6841;DHT22;3458;53.678;14.080;2023-03-23T04:02:55;11.20;99.90
6841;DHT22;3458;53.678;14.080;2023-03-23T04:05:22;11.10;99.90
6841;DHT22;3458;53.678;14.080;2023-03-23T04:07:48;11.10;99.90
6841;DHT22;3458;53.678;14.080;2023-03-23T04:10:18;11.10;99.90
6841;DHT22;3458;53.678;14.080;2023-03-23T04:12:47;11.10;99.90
6841;DHT22;3458;53.678;14.080;2023-03-23T04:15:12;11.10;99.90
6841;DHT22;3458;53.678;14.080;2023-03-23T04:17:38;11.10;99.90
6841;DHT22;3458;53.678;14.080;2023-03-23T04:20:06;11.00;99.90
6841;DHT22;3458;53.678;14.080;2023-03-23T04:22:34;11.00;99.90
6841;DHT22;3458;53.678;14.080;2023-03-23T04:25:00;11.00;99.90
6841;DHT22;3458;53.678;14.080;2023-03-23T04:27:27;11.00;99.90
6841;DHT22;3458;53.678;14.080;2023-03-23T04:29:57;11.00;99.90
6841;DHT22;3458;53.678;14.080;2023-03-23T04:32:24;11.00;99.90
6841;DHT22;3458;53.678;14.080;2023-03-23T04:34:57;11.00;99.90
6841;DHT22;3458;53.678;14.080;2023-03-23T04:37:27;11.00;99.90
6841;DHT22;3458;53.678;14.080;2023-03-23T04:39:55;11.00;99.90
6841;DHT22;3458;53.678;14.080;2023-03-23T04:42:30;11.00;99.90
6841;DHT22;3458;53.678;14.080;2023-03-23T04:44:57;10.90;99.90
6841;DHT22;3458;53.678;14.080;2023-03-23T04:47:23;10.90;99.90
6841;DHT22;3458;53.678;14.080;2023-03-23T04:49:49;10.90;99.90
6841;DHT22;3458;53.678;14.080;2023-03-23T04:52:17;10.90;99.90
6841;DHT22;3458;53.678;14.080;2023-03-23T04:54:42;11.00;99.90
6841;DHT22;3458;53.678;14.080;2023-03-23T04:57:08;11.00;99.90
6841;DHT22;3458;53.678;14.080;2023-03-23T04:59:34;10.90;99.90
6841;DHT22;3458;53.678;14.080;2023-03-23T05:01:59;10.90;99.90
6841;DHT22;3458;53.678;14.080;2023-03-23T05:04:24;10.90;99.90
6841;DHT22;3458;53.678;14.080;2023-03-23T05:06:51;10.90;99.90
6841;DHT22;3458;53.678;14.080;2023-03-23T05:09:16;10.90;99.90
6841;DHT22;3458;53.678;14.080;2023-03-23T05:11:42;10.90;99.90
6841;DHT22;3458;53.678;14.080;2023-03-23T05:14:07;11.00;99.90
6841;DHT22;3458;53.678;14.080;2023-03-23T05:16:33;11.00;99.90
6841;DHT22;3458;53.678;14.080;2023-03-23T05:19:02;11.00;99.90
6841;DHT22;3458;53.678;14.080;2023-03-23T05:21:27;11.10;99.90
6841;DHT22;3458;53.678;14.080;2023-03-23T05:23:53;11.10;99.90
6841;DHT22;3458;53.678;14.080;2023-03-23T05:26:21;11.10;99.90
6841;DHT22;3458;53.678;14.080;2023-03-23T05:28:46;11.10;99.90
6841;DHT22;3458;53.678;14.080;2023-03-23T05:31:13;11.10;99.90
6841;DHT22;3458;53.678;14.080;2023-03-23T05:33:38;11.10;99.90
6841;DHT22;3458;53.678;14.080;2023-03-23T05:36:04;11.00;99.90
6841;DHT22;3458;53.678;14.080;2023-03-23T05:38:32;11.00;99.90
6841;DHT22;3458;53.678;14.080;2023-03-23T05:41:01;11.00;99.90
6841;DHT22;3458;53.678;14.080;2023-03-23T05:43:27;11.00;99.90
6841;DHT22;3458;53.678;14.080;2023-03-23T05:45:52;11.00;99.90
6841;DHT22;3458;53.678;14.080;2023-03-23T05:48:18;11.10;99.90
6841;DHT22;3458;53.678;14.080;2023-03-23T05:50:43;11.10;99.90
6841;DHT22;3458;53.678;14.080;2023-03-23T05:53:09;11.20;99.90
6841;DHT22;3458;53.678;14.080;2023-03-23T05:55:35;11.20;99.90
6841;DHT22;3458;53.678;14.080;2023-03-23T05:58:00;11.20;99.90
6841;DHT22;3458;53.678;14.080;2023-03-23T06:00:26;11.20;99.90
6841;DHT22;3458;53.678;14.080;2023-03-23T06:02:56;11.20;99.90
6841;DHT22;3458;53.678;14.080;2023-03-23T06:05:22;11.20;99.90
6841;DHT22;3458;53.678;14.080;2023-03-23T06:07:49;11.10;99.90
6841;DHT22;3458;53.678;14.080;2023-03-23T06:10:14;11.10;99.90
6841;DHT22;3458;53.678;14.080;2023-03-23T06:12:40;11.10;99.90
6841;DHT22;3458;53.678;14.080;2023-03-23T06:15:06;11.10;99.90
6841;DHT22;3458;53.678;14.080;2023-03-23T06:17:33;11.10;99.90
6841;DHT22;3458;53.678;14.080;2023-03-23T06:19:59;11.10;99.90
6841;DHT22;3458;53.678;14.080;2023-03-23T06:22:25;11.10;99.90
6841;DHT22;3458;53.678;14.080;2023-03-23T06:24:51;11.10;99.90
6841;DHT22;3458;53.678;14.080;2023-03-23T06:27:17;11.10;99.90
6841;DHT22;3458;53.678;14.080;2023-03-23T06:29:42;11.00;99.90
6841;DHT22;3458;53.678;14.080;2023-03-23T06:32:10;11.00;99.90
6841;DHT22;3458;53.678;14.080;2023-03-23T06:34:37;11.00;99.90
6841;DHT22;3458;53.678;14.080;2023-03-23T06:37:02;11.00;99.90
6841;DHT22;3458;53.678;14.080;2023-03-23T06:39:28;11.00;99.90
6841;DHT22;3458;53.678;14.080;2023-03-23T06:41:54;11.00;99.90
6841;DHT22;3458;53.678;14.080;2023-03-23T06:44:20;11.00;99.90
6841;DHT22;3458;53.678;14.080;2023-03-23T06:46:45;10.90;99.90
6841;DHT22;3458;53.678;14.080;2023-03-23T06:49:11;10.90;99.90
6841;DHT22;3458;53.678;14.080;2023-03-23T06:51:37;11.00;99.90
6841;DHT22;3458;53.678;14.080;2023-03-23T06:54:03;11.00;99.90
6841;DHT22;3458;53.678;14.080;2023-03-23T06:56:29;10.90;99.90
6841;DHT22;3458;53.678;14.080;2023-03-23T06:58:55;10.90;99.90
6841;DHT22;3458;53.678;14.080;2023-03-23T07:01:21;11.00;99.90
6841;DHT22;3458;53.678;14.080;2023-03-23T07:03:47;11.00;99.90
6841;DHT22;3458;53.678;14.080;2023-03-23T07:06:14;11.10;99.90
6841;DHT22;3458;53.678;14.080;2023-03-23T07:08:39;11.10;99.90
6841;DHT22;3458;53.678;14.080;2023-03-23T07:11:05;11.00;99.90
6841;DHT22;3458;53.678;14.080;2023-03-23T07:13:31;11.00;99.90
6841;DHT22;3458;53.678;14.080;2023-03-23T07:15:57;11.10;99.90
6841;DHT22;3458;53.678;14.080;2023-03-23T07:18:23;11.10;99.90
6841;DHT22;3458;53.678;14.080;2023-03-23T07:20:50;11.10;99.90
6841;DHT22;3458;53.678;14.080;2023-03-23T07:23:16;11.00;99.90
6841;DHT22;3458;53.678;14.080;2023-03-23T07:25:43;11.00;99.90
6841;DHT22;3458;53.678;14.080;2023-03-23T07:28:08;11.10;99.90
6841;DHT22;3458;53.678;14.080;2023-03-23T07:30:34;11.10;99.90
6841;DHT22;3458;53.678;14.080;2023-03-23T07:33:04;11.10;99.90
6841;DHT22;3458;53.678;14.080;2023-03-23T07:35:30;11.10;99.90
6841;DHT22;3458;53.678;14.080;2023-03-23T07:37:55;11.10;99.90
6841;DHT22;3458;53.678;14.080;2023-03-23T07:40:21;11.00;99.90
6841;DHT22;3458;53.678;14.080;2023-03-23T07:42:55;11.00;99.90
6841;DHT22;3458;53.678;14.080;2023-03-23T07:45:21;11.00;99.90
6841;DHT22;3458;53.678;14.080;2023-03-23T07:47:47;11.00;99.90
6841;DHT22;3458;53.678;14.080;2023-03-23T07:50:13;11.00;99.90
6841;DHT22;3458;53.678;14.080;2023-03-23T07:52:39;11.00;99.90
6841;DHT22;3458;53.678;14.080;2023-03-23T07:55:07;11.00;99.90
6841;DHT22;3458;53.678;14.080;2023-03-23T07:57:33;11.10;99.90
6841;DHT22;3458;53.678;14.080;2023-03-23T07:59:59;11.10;99.90
6841;DHT22;3458;53.678;14.080;2023-03-23T08:02:25;11.10;99.90
6841;DHT22;3458;53.678;14.080;2023-03-23T08:04:51;11.20;99.90
6841;DHT22;3458;53.678;14.080;2023-03-23T08:07:19;11.20;99.90
6841;DHT22;3458;53.678;14.080;2023-03-23T08:09:45;11.20;99.90
6841;DHT22;3458;53.678;14.080;2023-03-23T08:12:12;11.20;99.90
6841;DHT22;3458;53.678;14.080;2023-03-23T08:14:37;11.20;99.90
6841;DHT22;3458;53.678;14.080;2023-03-23T08:17:03;11.10;99.90
6841;DHT22;3458;53.678;14.080;2023-03-23T08:19:29;11.10;99.90
6841;DHT22;3458;53.678;14.080;2023-03-23T08:21:55;11.20;99.90
6841;DHT22;3458;53.678;14.080;2023-03-23T08:24:21;11.20;99.90
6841;DHT22;3458;53.678;14.080;2023-03-23T08:26:46;11.20;99.90
6841;DHT22;3458;53.678;14.080;2023-03-23T08:29:12;11.20;99.90
6841;DHT22;3458;53.678;14.080;2023-03-23T08:31:38;11.30;99.90
6841;DHT22;3458;53.678;14.080;2023-03-23T08:34:05;11.30;99.90
6841;DHT22;3458;53.678;14.080;2023-03-23T08:36:34;11.40;99.90
6841;DHT22;3458;53.678;14.080;2023-03-23T08:39:00;11.40;99.90
6841;DHT22;3458;53.678;14.080;2023-03-23T08:41:26;11.50;99.90
6841;DHT22;3458;53.678;14.080;2023-03-23T08:43:52;11.60;99.90
6841;DHT22;3458;53.678;14.080;2023-03-23T08:46:20;11.60;99.90
6841;DHT22;3458;53.678;14.080;2023-03-23T08:48:46;11.70;99.90
6841;DHT22;3458;53.678;14.080;2023-03-23T08:51:12;11.70;99.90
6841;DHT22;3458;53.678;14.080;2023-03-23T08:53:38;11.70;99.90
6841;DHT22;3458;53.678;14.080;2023-03-23T08:56:09;11.80;99.90
6841;DHT22;3458;53.678;14.080;2023-03-23T08:58:36;11.90;99.90
6841;DHT22;3458;53.678;14.080;2023-03-23T09:01:03;11.90;99.90
6841;DHT22;3458;53.678;14.080;2023-03-23T09:03:28;11.90;99.90
6841;DHT22;3458;53.678;14.080;2023-03-23T09:05:59;12.00;99.90
6841;DHT22;3458;53.678;14.080;2023-03-23T09:08:25;12.10;99.90
6841;DHT22;3458;53.678;14.080;2023-03-23T09:10:51;12.10;99.90
6841;DHT22;3458;53.678;14.080;2023-03-23T09:13:17;12.20;99.90
6841;DHT22;3458;53.678;14.080;2023-03-23T09:15:42;12.30;99.90
6841;DHT22;3458;53.678;14.080;2023-03-23T09:18:08;12.40;99.90
6841;DHT22;3458;53.678;14.080;2023-03-23T09:20:33;12.50;99.90
6841;DHT22;3458;53.678;14.080;2023-03-23T09:22:59;12.60;99.90
6841;DHT22;3458;53.678;14.080;2023-03-23T09:25:26;12.70;99.90
6841;DHT22;3458;53.678;14.080;2023-03-23T09:27:56;12.70;99.90
6841;DHT22;3458;53.678;14.080;2023-03-23T09:30:30;12.80;99.90
6841;DHT22;3458;53.678;14.080;2023-03-23T09:32:57;13.00;99.90
6841;DHT22;3458;53.678;14.080;2023-03-23T09:35:23;13.00;99.90
6841;DHT22;3458;53.678;14.080;2023-03-23T09:37:51;13.00;99.90
6841;DHT22;3458;53.678;14.080;2023-03-23T09:40:26;13.10;99.90
6841;DHT22;3458;53.678;14.080;2023-03-23T09:46:19;13.30;99.90
6841;DHT22;3458;53.678;14.080;2023-03-23T09:48:53;13.40;99.90
6841;DHT22;3458;53.678;14.080;2023-03-23T09:56:45;14.10;99.90
6841;DHT22;3458;53.678;14.080;2023-03-23T10:02:17;14.30;99.90
6841;DHT22;3458;53.678;14.080;2023-03-23T10:04:48;14.50;99.90
6841;DHT22;3458;53.678;14.080;2023-03-23T10:07:17;14.60;99.90
6841;DHT22;3458;53.678;14.080;2023-03-23T10:09:45;14.80;99.90
6841;DHT22;3458;53.678;14.080;2023-03-23T10:15:20;14.80;99.90
6841;DHT22;3458;53.678;14.080;2023-03-23T10:17:54;14.70;99.90
6841;DHT22;3458;53.678;14.080;2023-03-23T10:26:12;14.60;99.90
6841;DHT22;3458;53.678;14.080;2023-03-23T10:29:25;14.50;99.90
6841;DHT22;3458;53.678;14.080;2023-03-23T10:31:54;14.50;99.90
6841;DHT22;3458;53.678;14.080;2023-03-23T10:34:50;14.50;99.90
6841;DHT22;3458;53.678;14.080;2023-03-23T10:37:22;14.40;99.90
6841;DHT22;3458;53.678;14.080;2023-03-23T10:39:57;14.40;99.90
6841;DHT22;3458;53.678;14.080;2023-03-23T10:42:34;14.40;99.90
6841;DHT22;3458;53.678;14.080;2023-03-23T10:47:38;14.60;99.90
6841;DHT22;3458;53.678;14.080;2023-03-23T10:50:06;14.70;99.90
6841;DHT22;3458;53.678;14.080;2023-03-23T10:52:37;14.80;99.90
6841;DHT22;3458;53.678;14.080;2023-03-23T10:55:11;14.90;99.90
6841;DHT22;3458;53.678;14.080;2023-03-23T10:57:39;15.00;99.90
6841;DHT22;3458;53.678;14.080;2023-03-23T11:00:23;15.10;99.90
6841;DHT22;3458;53.678;14.080;2023-03-23T11:06:00;15.00;99.90
6841;DHT22;3458;53.678;14.080;2023-03-23T11:08:47;14.80;99.90
6841;DHT22;3458;53.678;14.080;2023-03-23T11:11:17;14.70;99.90
6841;DHT22;3458;53.678;14.080;2023-03-23T11:13:45;14.60;99.90
6841;DHT22;3458;53.678;14.080;2023-03-23T11:16:23;14.60;99.90
6841;DHT22;3458;53.678;14.080;2023-03-23T11:18:48;14.70;99.90
6841;DHT22;3458;53.678;14.080;2023-03-23T11:21:14;15.00;99.90
6841;DHT22;3458;53.678;14.080;2023-03-23T11:23:43;15.10;99.90
6841;DHT22;3458;53.678;14.080;2023-03-23T11:26:17;15.10;99.90
6841;DHT22;3458;53.678;14.080;2023-03-23T11:29:09;15.00;99.90
6841;DHT22;3458;53.678;14.080;2023-03-23T11:31:49;14.90;99.90
6841;DHT22;3458;53.678;14.080;2023-03-23T11:34:29;14.80;99.90
6841;DHT22;3458;53.678;14.080;2023-03-23T11:36:58;14.70;99.90
6841;DHT22;3458;53.678;14.080;2023-03-23T11:39:33;14.70;99.90
6841;DHT22;3458;53.678;14.080;2023-03-23T11:42:19;14.70;99.90
6841;DHT22;3458;53.678;14.080;2023-03-23T11:44:45;14.80;99.90
6841;DHT22;3458;53.678;14.080;2023-03-23T11:50:17;14.70;99.90
6841;DHT22;3458;53.678;14.080;2023-03-23T11:58:18;14.40;99.90
6841;DHT22;3458;53.678;14.080;2023-03-23T12:01:00;14.40;99.90
6841;DHT22;3458;53.678;14.080;2023-03-23T12:06:07;14.50;99.90
6841;DHT22;3458;53.678;14.080;2023-03-23T12:08:53;14.50;99.90
6841;DHT22;3458;53.678;14.080;2023-03-23T12:11:34;14.60;99.90
6841;DHT22;3458;53.678;14.080;2023-03-23T12:14:16;14.50;99.90
6841;DHT22;3458;53.678;14.080;2023-03-23T12:17:05;14.60;99.90
6841;DHT22;3458;53.678;14.080;2023-03-23T12:19:52;14.60;99.90
6841;DHT22;3458;53.678;14.080;2023-03-23T12:22:52;14.60;99.90
6841;DHT22;3458;53.678;14.080;2023-03-23T12:25:43;14.60;99.90
6841;DHT22;3458;53.678;14.080;2023-03-23T12:31:33;14.50;99.90
6841;DHT22;3458;53.678;14.080;2023-03-23T12:34:19;14.40;99.90
6841;DHT22;3458;53.678;14.080;2023-03-23T12:42:56;14.30;99.90
6841;DHT22;3458;53.678;14.080;2023-03-23T12:48:01;14.20;99.90
6841;DHT22;3458;53.678;14.080;2023-03-23T12:50:37;14.10;99.90
6841;DHT22;3458;53.678;14.080;2023-03-23T12:53:10;14.10;99.90
6841;DHT22;3458;53.678;14.080;2023-03-23T12:58:46;14.10;99.90
6841;DHT22;3458;53.678;14.080;2023-03-23T13:01:21;14.10;99.90
6841;DHT22;3458;53.678;14.080;2023-03-23T13:04:03;14.10;99.90
6841;DHT22;3458;53.678;14.080;2023-03-23T13:06:44;14.10;99.90
6841;DHT22;3458;53.678;14.080;2023-03-23T13:09:26;14.00;99.90
6841;DHT22;3458;53.678;14.080;2023-03-23T13:11:54;13.90;99.90
6841;DHT22;3458;53.678;14.080;2023-03-23T13:17:34;13.10;99.90
6841;DHT22;3458;53.678;14.080;2023-03-23T13:20:17;12.70;99.90
6841;DHT22;3458;53.678;14.080;2023-03-23T13:25:38;12.30;99.90
6841;DHT22;3458;53.678;14.080;2023-03-23T13:28:16;12.20;99.90
6841;DHT22;3458;53.678;14.080;2023-03-23T13:30:54;12.20;99.90
6841;DHT22;3458;53.678;14.080;2023-03-23T13:33:20;12.20;99.90
6841;DHT22;3458;53.678;14.080;2023-03-23T13:35:48;12.00;99.90
6841;DHT22;3458;53.678;14.080;2023-03-23T13:38:26;11.90;99.90
6841;DHT22;3458;53.678;14.080;2023-03-23T13:40:53;12.00;99.90
6841;DHT22;3458;53.678;14.080;2023-03-23T13:43:31;11.90;99.90
6841;DHT22;3458;53.678;14.080;2023-03-23T13:48:49;12.30;99.90
6841;DHT22;3458;53.678;14.080;2023-03-23T13:56:59;12.60;99.90
6841;DHT22;3458;53.678;14.080;2023-03-23T14:01:53;12.50;99.90
6841;DHT22;3458;53.678;14.080;2023-03-23T14:04:19;12.60;99.90
6841;DHT22;3458;53.678;14.080;2023-03-23T14:06:49;12.60;99.90
6841;DHT22;3458;53.678;14.080;2023-03-23T14:09:54;12.70;99.90
6841;DHT22;3458;53.678;14.080;2023-03-23T14:12:20;12.60;99.90
6841;DHT22;3458;53.678;14.080;2023-03-23T14:14:49;12.80;99.90
6841;DHT22;3458;53.678;14.080;2023-03-23T14:17:19;13.10;99.90
6841;DHT22;3458;53.678;14.080;2023-03-23T14:19:50;13.70;99.90
6841;DHT22;3458;53.678;14.080;2023-03-23T14:22:23;14.60;99.90
6841;DHT22;3458;53.678;14.080;2023-03-23T14:24:49;15.00;99.90
6841;DHT22;3458;53.678;14.080;2023-03-23T14:27:18;14.70;99.90
6841;DHT22;3458;53.678;14.080;2023-03-23T14:29:45;14.60;99.90
6841;DHT22;3458;53.678;14.080;2023-03-23T14:32:16;14.40;99.90
6841;DHT22;3458;53.678;14.080;2023-03-23T14:34:43;14.20;99.90
6841;DHT22;3458;53.678;14.080;2023-03-23T14:37:15;13.90;99.90
6841;DHT22;3458;53.678;14.080;2023-03-23T14:39:45;13.60;99.90
6841;DHT22;3458;53.678;14.080;2023-03-23T14:42:13;13.30;99.90
6841;DHT22;3458;53.678;14.080;2023-03-23T14:44:48;13.20;99.90
6841;DHT22;3458;53.678;14.080;2023-03-23T14:47:19;13.00;99.90
6841;DHT22;3458;53.678;14.080;2023-03-23T14:49:45;12.90;99.90
6841;DHT22;3458;53.678;14.080;2023-03-23T14:52:16;12.90;99.90
6841;DHT22;3458;53.678;14.080;2023-03-23T14:54:43;12.90;99.90
6841;DHT22;3458;53.678;14.080;2023-03-23T14:57:26;12.70;99.90
6841;DHT22;3458;53.678;14.080;2023-03-23T14:59:52;12.60;99.90
6841;DHT22;3458;53.678;14.080;2023-03-23T15:02:36;12.50;99.90
6841;DHT22;3458;53.678;14.080;2023-03-23T15:05:20;12.50;99.90
6841;DHT22;3458;53.678;14.080;2023-03-23T15:07:50;12.50;99.90
6841;DHT22;3458;53.678;14.080;2023-03-23T15:10:19;12.60;99.90
6841;DHT22;3458;53.678;14.080;2023-03-23T15:12:47;12.60;99.90
6841;DHT22;3458;53.678;14.080;2023-03-23T15:15:31;12.70;99.90
6841;DHT22;3458;53.678;14.080;2023-03-23T15:17:58;12.90;99.90
6841;DHT22;3458;53.678;14.080;2023-03-23T15:20:30;13.80;99.90
6841;DHT22;3458;53.678;14.080;2023-03-23T15:22:56;15.40;99.90
6841;DHT22;3458;53.678;14.080;2023-03-23T15:25:29;16.90;99.90
6841;DHT22;3458;53.678;14.080;2023-03-23T15:27:57;18.20;99.90
6841;DHT22;3458;53.678;14.080;2023-03-23T15:32:54;17.60;99.90
6841;DHT22;3458;53.678;14.080;2023-03-23T15:35:23;16.60;99.90
6841;DHT22;3458;53.678;14.080;2023-03-23T15:37:58;16.00;99.90
6841;DHT22;3458;53.678;14.080;2023-03-23T15:40:25;15.70;99.90
6841;DHT22;3458;53.678;14.080;2023-03-23T15:43:06;15.50;99.90
6841;DHT22;3458;53.678;14.080;2023-03-23T15:45:32;15.20;99.90
6841;DHT22;3458;53.678;14.080;2023-03-23T15:48:10;14.80;99.90
6841;DHT22;3458;53.678;14.080;2023-03-23T15:50:36;14.50;99.90
6841;DHT22;3458;53.678;14.080;2023-03-23T15:55:43;14.00;99.90
6841;DHT22;3458;53.678;14.080;2023-03-23T15:58:10;13.80;99.90
6841;DHT22;3458;53.678;14.080;2023-03-23T16:00:36;13.70;99.90
6841;DHT22;3458;53.678;14.080;2023-03-23T16:03:05;13.60;99.90
6841;DHT22;3458;53.678;14.080;2023-03-23T16:05:31;13.40;99.90
6841;DHT22;3458;53.678;14.080;2023-03-23T16:07:57;13.40;99.90
6841;DHT22;3458;53.678;14.080;2023-03-23T16:10:25;13.20;99.90
6841;DHT22;3458;53.678;14.080;2023-03-23T16:12:50;13.20;99.90
6841;DHT22;3458;53.678;14.080;2023-03-23T16:15:17;13.10;99.90
6841;DHT22;3458;53.678;14.080;2023-03-23T16:17:43;13.00;99.90
6841;DHT22;3458;53.678;14.080;2023-03-23T16:20:21;13.00;99.90
6841;DHT22;3458;53.678;14.080;2023-03-23T16:22:47;12.90;99.90
6841;DHT22;3458;53.678;14.080;2023-03-23T16:25:13;12.90;99.90
6841;DHT22;3458;53.678;14.080;2023-03-23T16:27:40;12.80;99.90
6841;DHT22;3458;53.678;14.080;2023-03-23T16:30:21;12.80;99.90
6841;DHT22;3458;53.678;14.080;2023-03-23T16:32:47;12.80;99.90
6841;DHT22;3458;53.678;14.080;2023-03-23T16:35:14;12.70;99.90
6841;DHT22;3458;53.678;14.080;2023-03-23T16:37:53;12.70;99.90
6841;DHT22;3458;53.678;14.080;2023-03-23T16:40:20;12.70;99.90
6841;DHT22;3458;53.678;14.080;2023-03-23T16:42:46;12.60;99.90
6841;DHT22;3458;53.678;14.080;2023-03-23T16:45:12;12.60;99.90
6841;DHT22;3458;53.678;14.080;2023-03-23T16:47:39;12.60;99.90
6841;DHT22;3458;53.678;14.080;2023-03-23T16:50:07;12.60;99.90
6841;DHT22;3458;53.678;14.080;2023-03-23T16:52:33;12.60;99.90
6841;DHT22;3458;53.678;14.080;2023-03-23T16:54:58;12.60;99.90
6841;DHT22;3458;53.678;14.080;2023-03-23T16:57:24;12.60;99.90
6841;DHT22;3458;53.678;14.080;2023-03-23T16:59:50;12.50;99.90
6841;DHT22;3458;53.678;14.080;2023-03-23T17:02:16;12.50;99.90
6841;DHT22;3458;53.678;14.080;2023-03-23T17:04:43;12.60;99.90
6841;DHT22;3458;53.678;14.080;2023-03-23T17:07:09;12.50;99.90
6841;DHT22;3458;53.678;14.080;2023-03-23T17:09:35;12.50;99.90
6841;DHT22;3458;53.678;14.080;2023-03-23T17:12:00;12.50;99.90
6841;DHT22;3458;53.678;14.080;2023-03-23T17:14:26;12.50;99.90
6841;DHT22;3458;53.678;14.080;2023-03-23T17:16:52;12.50;99.90
6841;DHT22;3458;53.678;14.080;2023-03-23T17:19:17;12.50;99.90
6841;DHT22;3458;53.678;14.080;2023-03-23T17:21:43;12.50;99.90
6841;DHT22;3458;53.678;14.080;2023-03-23T17:24:08;12.40;99.90
6841;DHT22;3458;53.678;14.080;2023-03-23T17:26:34;12.40;99.90
6841;DHT22;3458;53.678;14.080;2023-03-23T17:29:00;12.30;99.90
6841;DHT22;3458;53.678;14.080;2023-03-23T17:31:26;12.20;99.90
6841;DHT22;3458;53.678;14.080;2023-03-23T17:33:51;12.10;99.90
6841;DHT22;3458;53.678;14.080;2023-03-23T17:36:17;12.00;99.90
6841;DHT22;3458;53.678;14.080;2023-03-23T17:38:43;12.00;99.90